Thunderstorms From: 22-05-2018 15:00 Until: 23-05-2018 15:00 warning for: Thunderstorms Level: Yellow info button

Although rather usual in this region, locally or potentially dangerous phenomena are expected. (such as local winds, summer thunderstorms, rising streams or high waves) Be aware and pay attention to the latest weather updates, especially if you carry out activities exposed to weather or close to a stream or shoreline. 


Meteo18 Weather Cam more information Meteo18 Weather Cam


warning for Thunderstorms more information blitzortung!


Rain radar more information rain snow radar


Visit our other weather sites:

Template documentation
and downloads

And another site



Weather Underground History page Text

Daily Summary for March 12, 2017 Units:  English    Metric   Both
« Previous Day
Next Day »
Daily Weekly Monthly Yearly Custom
  High: Low: Average:
Temperature: TemperatureC °F 6.2 °F 11.2 °F
Dew Point: DewpointC °F 3.4 °F 6.7 °F
Humidity: Humidity % 58 % 74 %
Wind Speed: WindSpeedKMH mph 0.0 mph 4.8 mph
Wind Gust: WindSpeedGustKMH mph - -
Wind:- - WSW
Pressure: PressurehPa in 1012.4 in -
Precipitation: 0.0 in    
Historical Graphs
 
 
Tabular Data for March 12, 2017
Time Temperature Dew Point Pressure Wind Wind Speed Wind Gust Humidity Rainfall Rate (Hourly)
TemperatureC °F DewpointC °F PressurehPa in Calm     Humidity % HourlyPrecipMM in
00:02 10.2 °F 3.5 °F 1014.8 in North 3.2 mph 3.2 mph 63 % 0.0 in
00:07 10.6 °F 3.4 °F 1014.8 in North 1.6 mph 3.2 mph 61 % 0.0 in
00:12 10.4 °F 3.7 °F 1014.8 in NNW 1.6 mph 3.2 mph 63 % 0.0 in
00:17 10.4 °F 3.9 °F 1014.8 in NNE 3.2 mph 3.2 mph 64 % 0.0 in
00:22 10.4 °F 3.9 °F 1014.8 in North 3.2 mph 3.2 mph 64 % 0.0 in
00:32 10.3 °F 4.2 °F 1014.8 in NNW 3.2 mph 4.8 mph 66 % 0.0 in
00:37 10.6 °F 4.1 °F 1014.4 in Calm   3.2 mph 64 % 0.0 in
00:42 10.6 °F 4.1 °F 1014.4 in West 1.6 mph 3.2 mph 64 % 0.0 in
00:52 10.2 °F 4.1 °F 1014.4 in West 1.6 mph 3.2 mph 66 % 0.0 in
00:57 10.3 °F 4.2 °F 1014.8 in WSW 1.6 mph 4.8 mph 66 % 0.0 in
01:02 10.4 °F 4.1 °F 1014.8 in Calm   4.8 mph 65 % 0.0 in
01:07 10.6 °F 4.1 °F 1014.4 in Calm   4.8 mph 64 % 0.0 in
01:12 10.5 °F 4.2 °F 1014.4 in Calm   1.6 mph 65 % 0.0 in
01:17 10.6 °F 4.1 °F 1014.4 in NE 1.6 mph 1.6 mph 64 % 0.0 in
01:22 10.6 °F 4.1 °F 1014.4 in Calm   3.2 mph 64 % 0.0 in
01:32 10.3 °F 4.0 °F 1014.4 in Calm   3.2 mph 65 % 0.0 in
01:37 10.4 °F 4.1 °F 1014.4 in NE 1.6 mph 3.2 mph 65 % 0.0 in
01:42 10.6 °F 4.1 °F 1014.4 in Calm   3.2 mph 64 % 0.0 in
01:52 10.8 °F 4.3 °F 1014.4 in WNW 1.6 mph 1.6 mph 64 % 0.0 in
01:57 10.3 °F 3.8 °F 1014.4 in WNW 1.6 mph 3.2 mph 64 % 0.0 in
02:02 9.7 °F 4.1 °F 1014.4 in West 1.6 mph 3.2 mph 68 % 0.0 in
02:07 9.7 °F 4.1 °F 1014.4 in WNW 1.6 mph 3.2 mph 68 % 0.0 in
02:12 9.6 °F 4.0 °F 1014.4 in West 1.6 mph 3.2 mph 68 % 0.0 in
02:17 9.6 °F 4.0 °F 1014.1 in West 1.6 mph 3.2 mph 68 % 0.0 in
02:22 9.8 °F 4.0 °F 1014.1 in West 3.2 mph 3.2 mph 67 % 0.0 in
02:27 10.2 °F 4.1 °F 1014.1 in WSW 1.6 mph 3.2 mph 66 % 0.0 in
02:32 10.5 °F 4.0 °F 1014.1 in WSW 1.6 mph 3.2 mph 64 % 0.0 in
02:42 11.1 °F 3.9 °F 1013.8 in SW 1.6 mph 3.2 mph 61 % 0.0 in
02:47 10.9 °F 3.9 °F 1013.8 in Calm   3.2 mph 62 % 0.0 in
02:52 10.4 °F 4.1 °F 1013.8 in Calm   3.2 mph 65 % 0.0 in
02:57 10.3 °F 4.0 °F 1013.8 in Calm   1.6 mph 65 % 0.0 in
03:02 10.4 °F 4.1 °F 1013.8 in Calm   1.6 mph 65 % 0.0 in
03:07 10.1 °F 4.2 °F 1013.8 in Calm   1.6 mph 67 % 0.0 in
03:12 9.7 °F 4.1 °F 1013.8 in WNW 1.6 mph 1.6 mph 68 % 0.0 in
03:17 9.8 °F 4.0 °F 1013.8 in West 1.6 mph 1.6 mph 67 % 0.0 in
03:22 10.0 °F 3.9 °F 1013.4 in West 1.6 mph 1.6 mph 66 % 0.0 in
03:32 9.8 °F 4.0 °F 1013.4 in Calm   1.6 mph 67 % 0.0 in
03:37 9.9 °F 3.8 °F 1013.4 in Calm   1.6 mph 66 % 0.0 in
03:42 9.9 °F 3.8 °F 1013.4 in Calm   1.6 mph 66 % 0.0 in
03:47 10.0 °F 3.9 °F 1013.4 in Calm   1.6 mph 66 % 0.0 in
03:52 10.0 °F 3.9 °F 1013.1 in Calm   1.6 mph 66 % 0.0 in
03:57 10.1 °F 4.0 °F 1013.1 in Calm   1.6 mph 66 % 0.0 in
04:02 10.2 °F 3.9 °F 1013.1 in West 1.6 mph 1.6 mph 65 % 0.0 in
04:12 9.9 °F 3.8 °F 1013.1 in WNW 1.6 mph 1.6 mph 66 % 0.0 in
04:17 9.8 °F 4.0 °F 1013.1 in Calm   1.6 mph 67 % 0.0 in
04:22 9.4 °F 3.8 °F 1013.1 in Calm   1.6 mph 68 % 0.0 in
04:32 9.3 °F 3.9 °F 1013.1 in Calm     69 % 0.0 in
04:37 9.3 °F 4.1 °F 1012.8 in Calm     70 % 0.0 in
04:42 9.1 °F 4.1 °F 1012.8 in WNW 1.6 mph 1.6 mph 71 % 0.0 in
04:52 8.8 °F 4.2 °F 1012.8 in WNW 1.6 mph 1.6 mph 73 % 0.0 in
05:02 8.6 °F 4.2 °F 1012.8 in Calm   3.2 mph 74 % 0.0 in
05:12 8.6 °F 4.2 °F 1012.8 in Calm   3.2 mph 74 % 0 in
05:17 8.3 °F 4.1 °F 1012.8 in Calm   1.6 mph 75 % 0.0 in
05:22 7.9 °F 4.1 °F 1012.8 in Calm   1.6 mph 77 % 0.0 in
05:32 7.7 °F 4.3 °F 1012.8 in Calm     79 % 0.0 in
05:37 7.6 °F 4.4 °F 1012.8 in Calm     80 % 0.0 in
05:42 7.5 °F 4.5 °F 1012.8 in Calm     81 % 0.0 in
05:47 7.6 °F 4.4 °F 1013.1 in Calm     80 % 0.0 in
05:52 7.4 °F 4.4 °F 1012.8 in WNW 1.6 mph   81 % 0.0 in
06:02 7.4 °F 4.2 °F 1012.8 in Calm   3.2 mph 80 % 0.0 in
06:12 7.5 °F 4.1 °F 1012.8 in Calm   3.2 mph 79 % 0.0 in
06:17 7.7 °F 4.1 °F 1012.8 in Calm   1.6 mph 78 % 0.0 in
06:22 7.9 °F 4.3 °F 1012.8 in ENE 1.6 mph 1.6 mph 78 % 0.0 in
06:32 7.4 °F 4.2 °F 1013.1 in Calm   1.6 mph 80 % 0.0 in
06:37 6.9 °F 4.2 °F 1012.8 in Calm   1.6 mph 83 % 0.0 in
06:42 6.7 °F 4.2 °F 1012.8 in Calm   1.6 mph 84 % 0.0 in
06:47 6.6 °F 4.3 °F 1012.8 in Calm   1.6 mph 85 % 0.0 in
06:52 6.6 °F 4.3 °F 1012.8 in Calm   1.6 mph 85 % 0.0 in
07:02 6.6 °F 4.3 °F 1012.8 in Calm   1.6 mph 85 % 0.0 in
07:07 6.5 °F 4.3 °F 1013.1 in Calm     86 % 0.0 in
07:12 6.4 °F 4.2 °F 1013.1 in Calm     86 % 0.0 in
07:17 6.3 °F 4.1 °F 1013.1 in Calm   1.6 mph 86 % 0.0 in
07:22 6.2 °F 4.2 °F 1013.1 in Calm   1.6 mph 87 % 0.0 in
07:27 6.2 °F 4.4 °F 1013.1 in SSW 1.6 mph 3.2 mph 88 % 0.0 in
07:32 6.2 °F 4.4 °F 1013.1 in SSW 6.4 mph 6.4 mph 88 % 0.0 in
07:42 6.7 °F 4.9 °F 1013.4 in SSW 6.4 mph 8.0 mph 88 % 0.0 in
07:47 6.9 °F 4.9 °F 1013.4 in SSW 8.0 mph 14.5 mph 87 % 0.0 in
07:57 7.6 °F 5.2 °F 1013.4 in SW 4.8 mph 14.5 mph 85 % 0.0 in
08:02 7.7 °F 5.3 °F 1013.4 in SSW 3.2 mph 14.5 mph 85 % 0.0 in
08:12 8.1 °F 5.9 °F 1013.8 in SW 14.5 mph 14.5 mph 86 % 0.0 in
08:17 8.2 °F 6.2 °F 1013.8 in SW 8.0 mph 16.1 mph 87 % 0.0 in
08:22 8.3 °F 6.4 °F 1013.8 in WSW 12.9 mph 16.1 mph 88 % 0.0 in
08:27 8.4 °F 6.5 °F 1013.8 in SW 12.9 mph 16.1 mph 88 % 0.0 in
08:32 8.6 °F 6.9 °F 1013.8 in WSW 4.8 mph 16.1 mph 89 % 0.0 in
08:37 8.7 °F 7.0 °F 1013.8 in WSW 4.8 mph 16.1 mph 89 % 0.0 in
08:42 8.9 °F 7.2 °F 1013.8 in SSW 4.8 mph 16.1 mph 89 % 0.0 in
08:52 9.1 °F 7.4 °F 1013.8 in West 4.8 mph 12.9 mph 89 % 0.0 in
08:57 9.2 °F 7.5 °F 1013.8 in SW 3.2 mph 11.3 mph 89 % 0.0 in
09:02 9.3 °F 7.6 °F 1013.8 in West 3.2 mph 11.3 mph 89 % 0.0 in
09:12 9.5 °F 7.8 °F 1013.8 in SW 6.4 mph 12.9 mph 89 % 0.0 in
09:22 9.6 °F 7.7 °F 1013.8 in SSW 8.0 mph 17.7 mph 88 % 0.0 in
09:32 9.4 °F 7.7 °F 1013.8 in WSW 6.4 mph 14.5 mph 89 % 0.0 in
09:37 9.5 °F 7.8 °F 1013.8 in SW 3.2 mph 14.5 mph 89 % 0.0 in
09:42 9.6 °F 7.9 °F 1013.8 in SW 4.8 mph 14.5 mph 89 % 0.0 in
09:52 9.9 °F 8.2 °F 1013.8 in SW 14.5 mph 14.5 mph 89 % 0.0 in
09:57 9.9 °F 8.0 °F 1013.8 in WSW 9.7 mph 19.3 mph 88 % 0.0 in
10:02 10.1 °F 8.4 °F 1013.8 in West 9.7 mph 19.3 mph 89 % 0.0 in
10:07 10.3 °F 8.4 °F 1013.8 in WSW 6.4 mph 19.3 mph 88 % 0.0 in
10:12 10.6 °F 8.7 °F 1013.8 in SW 20.9 mph 20.9 mph 88 % 0.0 in
10:17 10.5 °F 8.6 °F 1013.8 in WSW 9.7 mph 19.3 mph 88 % 0.0 in
10:22 10.6 °F 8.7 °F 1013.8 in WSW 3.2 mph 22.5 mph 88 % 0.0 in
10:32 10.8 °F 8.6 °F 1013.8 in WSW 16.1 mph 22.5 mph 86 % 0.0 in
10:37 11.1 °F 9.0 °F 1013.8 in West 11.3 mph 22.5 mph 87 % 0.0 in
10:47 11.5 °F 8.9 °F 1013.8 in WSW 11.3 mph 16.1 mph 84 % 0.0 in
10:52 11.7 °F 9.1 °F 1013.8 in WNW 6.4 mph 16.1 mph 84 % 0.0 in
11:02 11.7 °F 8.7 °F 1013.4 in West 11.3 mph 16.1 mph 82 % 0.0 in
11:12 12.1 °F 8.9 °F 1013.4 in West 8.0 mph 20.9 mph 81 % 0.0 in
11:17 12.2 °F 9.0 °F 1013.4 in West 3.2 mph 17.7 mph 81 % 0.0 in
11:22 12.6 °F 9.2 °F 1013.4 in WNW 4.8 mph 17.7 mph 80 % 0.0 in
11:32 12.8 °F 9.2 °F 1013.4 in West 11.3 mph 14.5 mph 79 % 0.0 in
11:42 13.1 °F 8.8 °F 1013.4 in West 11.3 mph 16.1 mph 75 % 0.0 in
11:47 13.2 °F 8.9 °F 1013.4 in West 12.9 mph 16.1 mph 75 % 0.0 in
11:52 13.5 °F 9.2 °F 1013.4 in West 12.9 mph 17.7 mph 75 % 0.0 in
12:02 13.7 °F 9.1 °F 1013.4 in West 6.4 mph 17.7 mph 74 % 0.0 in
12:12 13.9 °F 9.3 °F 1013.4 in West 8.0 mph 14.5 mph 74 % 0.0 in
12:17 14.0 °F 9.0 °F 1013.4 in West 9.7 mph 14.5 mph 72 % 0.0 in
12:22 14.0 °F 8.8 °F 1013.4 in SSW 4.8 mph 16.1 mph 71 % 0.0 in
12:27 14.3 °F 9.1 °F 1013.4 in WSW 8.0 mph 16.1 mph 71 % 0.0 in
12:32 14.4 °F 9.4 °F 1013.4 in West 9.7 mph 14.5 mph 72 % 0.0 in
12:42 14.6 °F 9.0 °F 1013.1 in WNW 6.4 mph 14.5 mph 69 % 0.0 in
12:52 14.7 °F 8.9 °F 1013.1 in WSW 4.8 mph 12.9 mph 68 % 0.0 in
12:57 14.8 °F 9.0 °F 1013.1 in WSW 3.2 mph 12.9 mph 68 % 0.0 in
13:02 14.9 °F 10.1 °F 1013.1 in SSW 12.9 mph 12.9 mph 73 % 0.0 in
13:07 14.8 °F 9.8 °F 1013.1 in SSW 8.0 mph 16.1 mph 72 % 0.0 in
13:12 14.8 °F 10.2 °F 1013.1 in SSW 12.9 mph 17.7 mph 74 % 0.0 in
13:17 14.9 °F 10.1 °F 1013.1 in South 9.7 mph 17.7 mph 73 % 0.0 in
13:22 15.2 °F 10.2 °F 1013.1 in West 8.0 mph 19.3 mph 72 % 0.0 in
13:27 15.5 °F 10.1 °F 1013.1 in WSW 6.4 mph 19.3 mph 70 % 0.0 in
13:32 15.6 °F 9.9 °F 1013.1 in West 9.7 mph 19.3 mph 69 % 0.0 in
13:42 15.7 °F 9.6 °F 1012.8 in SSW 8.0 mph 16.1 mph 67 % 0.0 in
13:47 15.7 °F 9.6 °F 1012.8 in South 6.4 mph 17.7 mph 67 % 0.0 in
13:52 15.9 °F 10.0 °F 1012.8 in SSW 9.7 mph 17.7 mph 68 % 0.0 in
13:57 15.8 °F 9.7 °F 1012.8 in SW 4.8 mph 16.1 mph 67 % 0.0 in
14:02 16.1 °F 9.7 °F 1012.8 in South 6.4 mph 17.7 mph 66 % 0.0 in
14:07 16.1 °F 10.0 °F 1012.8 in SW 16.1 mph 17.7 mph 67 % 0.0 in
14:12 16.1 °F 9.7 °F 1012.8 in SSW 14.5 mph 19.3 mph 66 % 0.0 in
14:17 15.9 °F 9.8 °F 1012.8 in SSW 16.1 mph 20.9 mph 67 % 0.0 in
14:22 15.9 °F 9.6 °F 1012.8 in SW 14.5 mph 20.9 mph 66 % 0.0 in
14:32 15.9 °F 8.9 °F 1012.8 in West 8.0 mph 17.7 mph 63 % 0.0 in
14:37 15.9 °F 9.3 °F 1012.8 in SW 12.9 mph 17.7 mph 65 % 0.0 in
14:42 16.2 °F 9.1 °F 1012.8 in West 6.4 mph 17.7 mph 63 % 0.0 in
14:52 16.3 °F 9.2 °F 1012.8 in SW 8.0 mph 17.7 mph 63 % 0.0 in
14:57 16.4 °F 9.3 °F 1012.8 in SW 12.9 mph 14.5 mph 63 % 0.0 in
15:02 16.4 °F 9.1 °F 1012.8 in SW 16.1 mph 16.1 mph 62 % 0.0 in
15:07 16.3 °F 9.0 °F 1012.8 in WSW 11.3 mph 17.7 mph 62 % 0.0 in
15:12 16.4 °F 9.3 °F 1012.8 in West 3.2 mph 17.7 mph 63 % 0.0 in
15:17 16.5 °F 9.4 °F 1012.8 in SSW 8.0 mph 17.7 mph 63 % 0.0 in
15:22 16.8 °F 9.0 °F 1012.8 in West 9.7 mph 16.1 mph 60 % 0.0 in
15:32 16.7 °F 9.1 °F 1012.4 in SSE 3.2 mph 16.1 mph 61 % 0.0 in
15:37 16.8 °F 9.2 °F 1012.4 in South 11.3 mph 16.1 mph 61 % 0.0 in
15:42 16.7 °F 8.9 °F 1012.4 in SW 9.7 mph 17.7 mph 60 % 0.0 in
15:47 16.8 °F 9.5 °F 1012.8 in SW 3.2 mph 17.7 mph 62 % 0.0 in
15:52 17.0 °F 9.4 °F 1012.8 in SSW 1.6 mph 17.7 mph 61 % 0.0 in
18:37 14.9 °F 6.7 °F 1013.8 in WNW 1.6 mph 6.4 mph 58 % 0.0 in
18:42 14.7 °F 6.5 °F 1013.8 in WNW 1.6 mph 8.0 mph 58 % 0.0 in
18:47 14.6 °F 6.7 °F 1013.8 in NW 1.6 mph 8.0 mph 59 % 0.0 in
18:52 14.4 °F 6.5 °F 1013.8 in Calm   6.4 mph 59 % 0.0 in
18:57 14.3 °F 6.4 °F 1013.8 in WNW 1.6 mph 4.8 mph 59 % 0.0 in
19:02 14.2 °F 6.1 °F 1014.1 in WNW 1.6 mph 3.2 mph 58 % 0.0 in
19:12 13.9 °F 5.8 °F 1014.1 in Calm   3.2 mph 58 % 0.0 in
19:27 13.5 °F 5.6 °F 1014.4 in Calm     59 % 0.0 in
19:32 13.6 °F 5.5 °F 1014.4 in Calm     58 % 0.0 in
19:37 13.5 °F 5.9 °F 1014.4 in NNE 1.6 mph 1.6 mph 60 % 0.0 in
19:42 13.3 °F 5.5 °F 1014.4 in NNW 1.6 mph 3.2 mph 59 % 0.0 in
19:52 13.4 °F 5.5 °F 1014.4 in WNW 1.6 mph 3.2 mph 59 % 0.0 in
19:57 13.2 °F 5.6 °F 1014.4 in WNW 3.2 mph 6.4 mph 60 % 0.0 in
20:02 12.9 °F 5.8 °F 1014.8 in NW 3.2 mph 6.4 mph 62 % 0.0 in
20:12 13.1 °F 6.0 °F 1014.8 in NW 4.8 mph 8.0 mph 62 % 0.0 in
20:17 12.9 °F 6.0 °F 1015.1 in NW 1.6 mph 8.0 mph 63 % 0.0 in
20:22 12.7 °F 6.1 °F 1015.1 in NNW 1.6 mph 6.4 mph 64 % 0.0 in
20:32 12.3 °F 5.7 °F 1015.1 in West 4.8 mph 6.4 mph 64 % 0.0 in
20:42 11.8 °F 6.7 °F 1015.5 in NW 3.2 mph 8.0 mph 71 % 0.0 in
20:52 11.8 °F 8.3 °F 1015.5 in NW 4.8 mph 11.3 mph 79 % 0.0 in
20:57 11.8 °F 8.5 °F 1015.8 in NW 4.8 mph 12.9 mph 80 % 0.0 in
21:02 11.8 °F 8.8 °F 1015.8 in NNW 9.7 mph 19.3 mph 82 % 0.0 in
21:07 11.7 °F 9.1 °F 1015.8 in WNW 6.4 mph 19.3 mph 84 % 0.0 in
21:12 11.7 °F 9.3 °F 1015.8 in WNW 12.9 mph 19.3 mph 85 % 0.0 in
21:17 11.6 °F 9.2 °F 1015.8 in WNW 11.3 mph 20.9 mph 85 % 0.0 in
21:22 11.6 °F 9.3 °F 1016.1 in NW 9.7 mph 20.9 mph 86 % 0.0 in
21:32 11.3 °F 9.2 °F 1016.1 in North 6.4 mph 17.7 mph 87 % 0.0 in
21:42 11.2 °F 9.3 °F 1016.5 in NNW 6.4 mph 14.5 mph 88 % 0.0 in
21:52 11.1 °F 9.2 °F 1016.5 in WNW 3.2 mph 16.1 mph 88 % 0.0 in
21:57 10.9 °F 9.2 °F 1016.5 in NW 3.2 mph 16.1 mph 89 % 0.0 in
22:02 10.8 °F 9.1 °F 1016.8 in North 6.4 mph 14.5 mph 89 % 0.0 in
22:07 10.8 °F 9.1 °F 1016.5 in NW 4.8 mph 14.5 mph 89 % 0.0 in
22:12 10.8 °F 9.1 °F 1016.8 in NNW 6.4 mph 14.5 mph 89 % 0.0 in
22:17 10.7 °F 9.1 °F 1016.8 in NW 4.8 mph 16.1 mph 90 % 0.0 in
22:22 10.7 °F 9.1 °F 1016.8 in WNW 4.8 mph 16.1 mph 90 % 0.0 in
22:27 10.7 °F 9.1 °F 1016.8 in North 4.8 mph 16.1 mph 90 % 0.0 in
22:32 10.6 °F 9.0 °F 1016.8 in NNW 12.9 mph 17.7 mph 90 % 0.0 in
22:37 10.6 °F 9.0 °F 1016.8 in NNW 6.4 mph 17.7 mph 90 % 0.0 in
22:47 10.5 °F 8.9 °F 1017.2 in NW 4.8 mph 17.7 mph 90 % 0.0 in
22:52 10.4 °F 8.8 °F 1017.2 in NW 6.4 mph 17.7 mph 90 % 0.0 in
22:57 10.4 °F 8.8 °F 1017.2 in WNW 4.8 mph 20.9 mph 90 % 0.0 in
23:02 10.4 °F 9.0 °F 1017.2 in WNW 12.9 mph 20.9 mph 91 % 0.0 in
23:07 10.4 °F 9.0 °F 1017.2 in NNW 12.9 mph 20.9 mph 91 % 0.0 in
23:12 10.4 °F 9.0 °F 1017.2 in NW 9.7 mph 20.9 mph 91 % 0.0 in
23:17 10.3 °F 8.9 °F 1017.2 in NNW 3.2 mph 20.9 mph 91 % 0.0 in
23:22 10.3 °F 8.9 °F 1017.5 in NNW 4.8 mph 20.9 mph 91 % 0.0 in
23:32 10.2 °F 8.8 °F 1017.5 in NNW 4.8 mph 12.9 mph 91 % 0.0 in
23:37 10.2 °F 8.8 °F 1017.5 in NNW 3.2 mph 12.9 mph 91 % 0.0 in
23:42 10.2 °F 8.8 °F 1017.5 in NW 3.2 mph 11.3 mph 91 % 0.0 in
23:47 10.2 °F 8.8 °F 1017.5 in WNW 1.6 mph 11.3 mph 91 % 0.0 in
23:52 10.1 °F 8.7 °F 1017.8 in NNW 6.4 mph 11.3 mph 91 % 0.0 in
23:57 10.1 °F 8.9 °F 1017.8 in NW 9.7 mph 12.9 mph 92 % 0.0 in
Meteo18
Compliments of Weather Underground - 4 mb

Script developed by  Jim McMurry - jmcmurry@mwt.net Adapted for the template by  Wim van der Kuil - Leuven-Template.eu

You find our weather info also at:

European Weather Network

Weather Underground

Equipment we use:

Weather-station
Davis Vue

Weather-program
Meteobridge

Weather-server
Raspberry PI 2 B+

Provider
1 and 1

Davis Vue

Meteobridge

Raspberry PI 2 B+

1 and 1